createdAt,value
2019-01-08T00:00:50.492Z,6.30
2019-01-08T00:03:18.347Z,6.10
2019-01-08T00:05:47.411Z,6.10
2019-01-08T00:08:15.311Z,6.10
2019-01-08T00:10:43.220Z,6.10
2019-01-08T00:13:11.163Z,6.10
2019-01-08T00:15:39.100Z,6.20
2019-01-08T00:18:07.011Z,6.20
2019-01-08T00:20:34.913Z,6.10
2019-01-08T00:23:02.884Z,6.10
2019-01-08T00:25:30.716Z,6.10
2019-01-08T00:27:58.727Z,6.00
2019-01-08T00:30:26.571Z,6.10
2019-01-08T00:32:54.479Z,6.10
2019-01-08T00:35:22.478Z,6.10
2019-01-08T00:37:50.310Z,6.10
2019-01-08T00:40:18.423Z,6.00
2019-01-08T00:42:46.335Z,6.00
2019-01-08T00:45:14.283Z,5.90
2019-01-08T00:47:42.223Z,5.80
2019-01-08T00:50:10.266Z,5.80
2019-01-08T00:52:38.450Z,5.90
2019-01-08T00:55:06.495Z,5.80
2019-01-08T00:57:34.452Z,5.80
2019-01-08T01:00:02.474Z,5.80
2019-01-08T01:02:30.512Z,5.80
2019-01-08T01:04:58.366Z,5.80
2019-01-08T01:07:26.303Z,5.80
2019-01-08T01:09:54.232Z,5.80
2019-01-08T01:12:22.663Z,5.70
2019-01-08T01:14:50.697Z,5.70
2019-01-08T01:17:18.601Z,5.80
2019-01-08T01:19:46.527Z,5.80
2019-01-08T01:22:14.471Z,5.80
2019-01-08T01:24:42.363Z,5.80
2019-01-08T01:27:10.310Z,5.90
2019-01-08T01:29:38.190Z,5.80
2019-01-08T01:32:06.172Z,5.90
2019-01-08T01:34:34.079Z,5.80
2019-01-08T01:37:02.071Z,5.80
2019-01-08T01:39:30.040Z,5.80
2019-01-08T01:41:58.030Z,5.80
2019-01-08T01:44:25.944Z,5.80
2019-01-08T01:46:53.896Z,5.70
2019-01-08T01:49:21.886Z,5.70
2019-01-08T01:51:49.785Z,5.70
2019-01-08T01:54:17.623Z,5.70
2019-01-08T01:56:45.711Z,5.70
2019-01-08T01:59:13.619Z,5.60
2019-01-08T02:01:41.622Z,5.60
2019-01-08T02:04:09.526Z,5.60
2019-01-08T02:06:37.447Z,5.60
2019-01-08T02:09:06.159Z,5.50
2019-01-08T02:11:34.173Z,5.40
2019-01-08T02:14:02.113Z,5.40
2019-01-08T02:16:29.962Z,5.50
2019-01-08T02:18:57.910Z,5.50
2019-01-08T02:21:25.820Z,5.50
2019-01-08T02:23:53.728Z,5.40
2019-01-08T02:26:21.620Z,5.40
2019-01-08T02:28:49.536Z,5.40
2019-01-08T02:31:17.484Z,5.40
2019-01-08T02:33:45.522Z,5.50
2019-01-08T02:36:13.404Z,5.40
2019-01-08T02:38:41.409Z,5.40
2019-01-08T02:41:09.286Z,5.40
2019-01-08T02:43:37.115Z,5.50
2019-01-08T02:46:05.252Z,5.40
2019-01-08T02:48:33.142Z,5.50
2019-01-08T02:51:01.073Z,5.40
2019-01-08T02:53:28.971Z,5.50
2019-01-08T02:55:56.851Z,5.40
2019-01-08T02:58:24.811Z,5.40
2019-01-08T03:00:52.811Z,5.30
2019-01-08T03:03:20.724Z,5.30
2019-01-08T03:05:48.607Z,5.30
2019-01-08T03:08:16.519Z,5.30
2019-01-08T03:10:45.690Z,5.20
2019-01-08T03:13:13.630Z,5.20
2019-01-08T03:15:41.635Z,5.20
2019-01-08T03:18:09.525Z,5.20
2019-01-08T03:20:37.580Z,5.20
2019-01-08T03:23:05.464Z,5.10
2019-01-08T03:25:33.435Z,5.10
2019-01-08T03:28:01.395Z,5.10
2019-01-08T03:30:29.148Z,5.10
2019-01-08T03:32:57.012Z,5.00
2019-01-08T03:35:24.923Z,5.00
2019-01-08T03:37:52.874Z,5.00
2019-01-08T03:40:21.067Z,5.00
2019-01-08T03:42:49.005Z,5.00
2019-01-08T03:45:17.191Z,5.00
2019-01-08T03:47:45.092Z,5.00
2019-01-08T03:50:13.167Z,5.00
2019-01-08T03:52:41.080Z,4.90
2019-01-08T03:55:09.128Z,4.90
2019-01-08T03:57:36.996Z,4.90
2019-01-08T04:00:06.391Z,4.90
2019-01-08T04:02:34.266Z,4.90
2019-01-08T04:05:02.350Z,4.80
2019-01-08T04:07:30.216Z,4.80
2019-01-08T04:09:58.132Z,4.80
2019-01-08T04:12:25.966Z,4.80
2019-01-08T04:14:53.907Z,4.70
2019-01-08T04:17:21.794Z,4.70
2019-01-08T04:19:49.734Z,4.70
2019-01-08T04:22:17.634Z,4.70
2019-01-08T04:24:45.533Z,4.60
2019-01-08T04:27:13.355Z,4.60
2019-01-08T04:29:41.402Z,4.60
2019-01-08T04:32:09.403Z,4.60
2019-01-08T04:34:37.351Z,4.60
2019-01-08T04:37:05.254Z,4.60
2019-01-08T04:39:33.115Z,4.60
2019-01-08T04:42:01.082Z,4.50
2019-01-08T04:44:29.153Z,4.40
2019-01-08T04:46:57.187Z,4.50
2019-01-08T04:49:25.095Z,4.50
2019-01-08T04:51:52.903Z,4.50
2019-01-08T04:54:20.832Z,4.50
2019-01-08T04:56:48.824Z,4.50
2019-01-08T04:59:16.701Z,4.40
2019-01-08T05:01:44.665Z,4.40
2019-01-08T05:04:12.627Z,4.40
2019-01-08T05:06:40.582Z,4.30
2019-01-08T05:09:08.559Z,4.40
2019-01-08T05:11:36.483Z,4.40
2019-01-08T05:14:04.555Z,4.30
2019-01-08T05:16:32.551Z,4.30
2019-01-08T05:19:00.746Z,4.30
2019-01-08T05:21:28.752Z,4.30
2019-01-08T05:23:56.787Z,4.20
2019-01-08T05:26:24.648Z,4.20
2019-01-08T05:28:52.483Z,4.20
2019-01-08T05:31:20.318Z,4.20
2019-01-08T05:33:48.186Z,4.20
2019-01-08T05:36:16.131Z,4.10
2019-01-08T05:38:43.975Z,4.10
2019-01-08T05:41:11.878Z,4.10
2019-01-08T05:43:39.828Z,4.10
2019-01-08T05:46:07.923Z,4.20
2019-01-08T05:48:35.771Z,4.10
2019-01-08T05:51:03.763Z,4.10
2019-01-08T05:53:31.640Z,4.10
2019-01-08T05:55:59.520Z,4.10
2019-01-08T05:58:27.543Z,4.10
2019-01-08T06:00:55.474Z,4.10
2019-01-08T06:03:23.415Z,4.10
2019-01-08T06:05:51.388Z,4.10
2019-01-08T06:08:19.291Z,4.10
2019-01-08T06:10:48.252Z,4.10
2019-01-08T06:13:17.898Z,4.10
2019-01-08T06:15:47.435Z,4.00
2019-01-08T06:18:15.396Z,4.10
2019-01-08T06:20:43.303Z,4.00
2019-01-08T06:23:11.360Z,4.00
2019-01-08T06:25:39.316Z,4.10
2019-01-08T06:28:07.203Z,4.10
2019-01-08T06:30:35.166Z,4.10
2019-01-08T06:33:03.066Z,4.20
2019-01-08T06:35:30.967Z,4.20
2019-01-08T06:37:58.985Z,4.10
2019-01-08T06:40:26.949Z,4.10
2019-01-08T06:42:54.883Z,4.20
2019-01-08T06:45:22.887Z,4.20
2019-01-08T06:47:50.790Z,4.20
2019-01-08T06:50:18.727Z,4.20
2019-01-08T06:52:46.606Z,4.20
2019-01-08T06:55:15.546Z,4.20
2019-01-08T06:57:43.599Z,4.20
2019-01-08T07:00:11.519Z,4.20
2019-01-08T07:02:39.530Z,4.20
2019-01-08T07:05:07.531Z,4.20
2019-01-08T07:07:35.448Z,4.20
2019-01-08T07:10:03.615Z,4.20
2019-01-08T07:12:31.566Z,4.20
2019-01-08T07:14:59.511Z,4.20
2019-01-08T07:17:27.551Z,4.20
2019-01-08T07:19:55.598Z,4.30
2019-01-08T07:22:23.554Z,4.30
2019-01-08T07:24:51.486Z,4.40
2019-01-08T07:27:19.615Z,4.40
2019-01-08T07:29:47.733Z,4.40
2019-01-08T07:32:15.649Z,4.50
2019-01-08T07:34:43.554Z,4.40
2019-01-08T07:37:11.486Z,4.30
2019-01-08T07:39:39.417Z,4.30
2019-01-08T07:42:07.255Z,4.40
2019-01-08T07:44:35.501Z,4.30
2019-01-08T07:47:03.440Z,4.30
2019-01-08T07:49:31.315Z,4.40
2019-01-08T07:51:59.345Z,4.40
2019-01-08T07:54:27.285Z,4.50
2019-01-08T07:56:55.275Z,4.50
2019-01-08T07:59:23.171Z,4.50
2019-01-08T08:01:51.216Z,4.50
2019-01-08T08:04:19.196Z,4.50
2019-01-08T08:06:47.170Z,4.50
2019-01-08T08:09:15.075Z,4.50
2019-01-08T08:11:43.031Z,4.50
2019-01-08T08:14:17.075Z,4.60
2019-01-08T08:16:44.969Z,4.60
2019-01-08T08:19:12.872Z,4.60
2019-01-08T08:21:40.818Z,4.60
2019-01-08T08:24:08.727Z,4.60
2019-01-08T08:26:36.617Z,4.60
2019-01-08T08:29:04.792Z,4.70
2019-01-08T08:31:32.731Z,4.70
2019-01-08T08:34:00.686Z,4.70
2019-01-08T08:36:28.727Z,4.70
2019-01-08T08:38:56.751Z,4.70
2019-01-08T08:41:24.638Z,4.80
2019-01-08T08:43:52.531Z,4.80
2019-01-08T08:46:20.504Z,4.80
2019-01-08T08:48:48.423Z,4.80
2019-01-08T08:51:16.391Z,4.80
2019-01-08T08:53:52.008Z,4.70
2019-01-08T08:56:14.304Z,4.70
2019-01-08T08:58:42.213Z,4.60
2019-01-08T09:01:10.193Z,4.60
2019-01-08T09:03:38.094Z,4.50
2019-01-08T09:06:06.024Z,4.40
2019-01-08T09:08:33.995Z,4.40
2019-01-08T09:11:01.927Z,4.60
2019-01-08T09:13:29.851Z,4.60
2019-01-08T09:15:57.794Z,4.70
2019-01-08T09:18:25.616Z,4.70
2019-01-08T09:20:53.533Z,4.80
2019-01-08T09:23:21.527Z,4.80
2019-01-08T09:25:49.479Z,4.90
2019-01-08T09:28:17.351Z,4.90
2019-01-08T09:30:46.499Z,4.90
2019-01-08T09:33:14.425Z,5.00
2019-01-08T09:35:42.454Z,5.00
2019-01-08T09:38:10.343Z,5.10
2019-01-08T09:40:38.362Z,5.10
2019-01-08T09:43:06.439Z,5.10
2019-01-08T09:45:34.533Z,5.20
2019-01-08T09:48:02.441Z,5.20
2019-01-08T09:50:30.367Z,5.10
2019-01-08T09:52:58.323Z,5.10
2019-01-08T09:55:26.143Z,5.10
2019-01-08T09:57:54.063Z,5.10
2019-01-08T10:00:22.511Z,5.00
2019-01-08T10:02:50.447Z,4.90
2019-01-08T10:05:18.677Z,5.00
2019-01-08T10:07:46.697Z,5.00
2019-01-08T10:10:14.587Z,5.10
2019-01-08T10:12:42.550Z,5.20
2019-01-08T10:15:13.458Z,5.20
2019-01-08T10:17:41.495Z,5.20
2019-01-08T10:20:09.452Z,5.30
2019-01-08T10:22:37.393Z,5.30
2019-01-08T10:25:06.402Z,5.30
2019-01-08T10:27:34.263Z,5.30
2019-01-08T10:30:02.252Z,5.30
2019-01-08T10:32:30.111Z,5.30
2019-01-08T10:34:59.537Z,5.30
2019-01-08T10:37:27.567Z,5.30
2019-01-08T10:39:55.560Z,5.30
2019-01-08T10:42:23.543Z,5.40
2019-01-08T10:44:51.410Z,5.40
2019-01-08T10:47:19.228Z,5.40
2019-01-08T10:49:47.188Z,5.40
2019-01-08T10:52:15.087Z,5.30
2019-01-08T10:54:43.031Z,5.30
2019-01-08T10:57:10.900Z,5.20
2019-01-08T10:59:38.796Z,5.30
2019-01-08T11:02:06.757Z,5.20
2019-01-08T11:04:34.814Z,5.20
2019-01-08T11:07:02.743Z,5.10
2019-01-08T11:09:30.705Z,5.10
2019-01-08T11:11:58.599Z,5.20
2019-01-08T11:14:59.876Z,5.30
2019-01-08T11:17:26.743Z,5.30
2019-01-08T11:19:54.564Z,5.40
2019-01-08T11:22:22.413Z,5.50
2019-01-08T11:24:50.435Z,5.50
2019-01-08T11:27:18.420Z,5.50
2019-01-08T11:29:46.331Z,5.50
2019-01-08T11:32:14.271Z,5.50
2019-01-08T11:34:42.214Z,5.50
2019-01-08T11:37:10.111Z,5.50
2019-01-08T11:39:37.961Z,5.50
2019-01-08T11:42:05.898Z,5.60
2019-01-08T11:44:33.811Z,5.60
2019-01-08T11:47:01.812Z,5.60
2019-01-08T11:49:29.796Z,5.60
2019-01-08T11:51:57.752Z,5.60
2019-01-08T11:54:25.756Z,5.60
2019-01-08T11:56:53.592Z,5.60
2019-01-08T11:59:21.552Z,5.60
2019-01-08T12:01:56.967Z,5.60
2019-01-08T12:04:19.570Z,5.70
2019-01-08T12:06:47.546Z,5.70
2019-01-08T12:09:15.459Z,5.70
2019-01-08T12:11:43.431Z,5.80
2019-01-08T12:14:21.778Z,5.80
2019-01-08T12:16:49.648Z,5.80
2019-01-08T12:19:17.548Z,5.80
2019-01-08T12:21:45.352Z,5.80
2019-01-08T12:24:13.315Z,5.80
2019-01-08T12:26:41.301Z,5.80
2019-01-08T12:29:09.302Z,5.70
2019-01-08T12:31:37.383Z,5.70
2019-01-08T12:34:05.435Z,5.70
2019-01-08T12:36:33.341Z,5.70
2019-01-08T12:39:01.292Z,5.70
2019-01-08T12:41:29.215Z,5.70
2019-01-08T12:43:57.114Z,5.80
2019-01-08T12:46:25.031Z,5.80
2019-01-08T12:48:52.966Z,5.80
2019-01-08T12:51:20.925Z,5.80
2019-01-08T12:53:48.771Z,5.90
2019-01-08T12:56:16.638Z,6.00
2019-01-08T12:58:44.623Z,6.00
2019-01-08T13:01:12.573Z,5.90
2019-01-08T13:03:40.486Z,5.80
2019-01-08T13:06:08.438Z,5.80
2019-01-08T13:08:36.233Z,5.80
2019-01-08T13:11:04.110Z,5.80
2019-01-08T13:13:32.059Z,5.80
2019-01-08T13:16:00.124Z,5.80
2019-01-08T13:18:28.004Z,5.70
2019-01-08T13:20:56.081Z,5.70
2019-01-08T13:23:23.968Z,5.70
2019-01-08T13:25:51.948Z,5.70
2019-01-08T13:28:19.811Z,5.70
2019-01-08T13:30:49.103Z,5.70
2019-01-08T13:33:17.055Z,5.70
2019-01-08T13:35:45.001Z,5.70
2019-01-08T13:38:12.979Z,5.80
2019-01-08T13:40:40.866Z,5.80
2019-01-08T13:43:08.851Z,5.80
2019-01-08T13:45:36.690Z,5.80
2019-01-08T13:48:04.547Z,5.80
2019-01-08T13:50:32.505Z,5.80
2019-01-08T13:53:00.358Z,5.80
2019-01-08T13:55:28.311Z,5.80
2019-01-08T13:57:56.396Z,5.90
2019-01-08T14:00:24.714Z,5.90
2019-01-08T14:02:52.894Z,6.00
2019-01-08T14:05:21.091Z,6.00
2019-01-08T14:07:48.992Z,6.00
2019-01-08T14:10:17.171Z,6.10
2019-01-08T14:12:45.079Z,6.10
2019-01-08T14:15:36.291Z,6.10
2019-01-08T14:18:04.243Z,6.20
2019-01-08T14:20:32.126Z,6.20
2019-01-08T14:23:00.011Z,6.20
2019-01-08T14:25:28.001Z,6.30
2019-01-08T14:27:55.888Z,6.30
2019-01-08T14:30:24.066Z,6.30
2019-01-08T14:32:51.920Z,6.20
2019-01-08T14:35:20.365Z,6.20
2019-01-08T14:37:48.277Z,6.20
2019-01-08T14:40:16.195Z,6.30
2019-01-08T14:42:44.371Z,6.20
2019-01-08T14:45:12.302Z,6.20
2019-01-08T14:47:40.239Z,6.30
2019-01-08T14:50:08.233Z,6.30
2019-01-08T14:52:36.254Z,6.30
2019-01-08T14:55:04.516Z,6.20
2019-01-08T14:57:32.355Z,6.10
2019-01-08T15:00:00.288Z,6.10
2019-01-08T15:02:28.284Z,6.10
2019-01-08T15:04:57.992Z,6.10
2019-01-08T15:07:26.086Z,6.00
2019-01-08T15:09:53.969Z,6.00
2019-01-08T15:12:21.819Z,6.00
2019-01-08T15:15:30.367Z,6.00
2019-01-08T15:17:56.807Z,6.00
2019-01-08T15:20:24.787Z,6.10
2019-01-08T15:22:52.701Z,6.00
2019-01-08T15:25:20.795Z,6.10
2019-01-08T15:27:48.880Z,6.10
2019-01-08T15:30:16.755Z,6.10
2019-01-08T15:32:44.618Z,6.00
2019-01-08T15:35:12.684Z,6.10
2019-01-08T15:37:40.629Z,6.10
2019-01-08T15:40:08.559Z,6.10
2019-01-08T15:42:36.559Z,6.00
2019-01-08T15:45:05.032Z,6.00
2019-01-08T15:47:32.856Z,6.10
2019-01-08T15:50:00.800Z,6.10
2019-01-08T15:52:28.790Z,6.00
2019-01-08T15:54:56.726Z,6.00
2019-01-08T15:57:24.626Z,6.00
2019-01-08T15:59:52.511Z,6.00
2019-01-08T16:02:20.535Z,6.00
2019-01-08T16:04:48.395Z,6.00
2019-01-08T16:07:16.274Z,6.00
2019-01-08T16:09:44.235Z,6.00
2019-01-08T16:12:12.203Z,6.00
2019-01-08T16:15:00.588Z,6.00
2019-01-08T16:17:28.630Z,6.00
2019-01-08T16:19:56.548Z,6.00
2019-01-08T16:22:24.597Z,6.00
2019-01-08T16:24:52.490Z,6.00
2019-01-08T16:27:20.372Z,6.00
2019-01-08T16:29:48.260Z,6.00
2019-01-08T16:32:16.210Z,5.90
2019-01-08T16:34:44.152Z,5.90
2019-01-08T16:37:12.042Z,5.90
2019-01-08T16:39:40.024Z,5.90
2019-01-08T16:42:08.071Z,5.90
2019-01-08T16:44:36.019Z,6.00
2019-01-08T16:47:04.007Z,6.00
2019-01-08T16:49:31.901Z,6.00
2019-01-08T16:52:00.078Z,6.00
2019-01-08T16:54:27.962Z,6.00
2019-01-08T16:56:55.835Z,6.00
2019-01-08T16:59:23.834Z,6.00
2019-01-08T17:01:51.872Z,6.00
2019-01-08T17:04:19.827Z,6.10
2019-01-08T17:06:47.751Z,6.10
2019-01-08T17:09:15.679Z,6.10
2019-01-08T17:11:43.530Z,6.10
2019-01-08T17:14:16.132Z,6.10
2019-01-08T17:16:44.119Z,6.10
2019-01-08T17:19:12.031Z,6.10
2019-01-08T17:21:39.925Z,6.10
2019-01-08T17:24:07.782Z,6.20
2019-01-08T17:26:35.735Z,6.20
2019-01-08T17:29:03.701Z,6.10
2019-01-08T17:31:31.623Z,6.10
2019-01-08T17:33:59.566Z,6.10
2019-01-08T17:36:27.484Z,6.10
2019-01-08T17:38:55.538Z,6.00
2019-01-08T17:41:23.370Z,6.00
2019-01-08T17:43:51.298Z,6.00
2019-01-08T17:46:19.233Z,6.00
2019-01-08T17:48:47.153Z,6.00
2019-01-08T17:51:15.122Z,6.00
2019-01-08T17:53:42.938Z,6.00
2019-01-08T17:56:10.992Z,6.00
2019-01-08T17:58:41.389Z,6.00
2019-01-08T18:01:15.067Z,6.00
2019-01-08T18:03:43.237Z,6.00
2019-01-08T18:06:11.335Z,5.90
2019-01-08T18:08:39.289Z,5.90
2019-01-08T18:11:07.173Z,5.90
2019-01-08T18:13:35.126Z,5.90
2019-01-08T18:16:26.888Z,5.90
2019-01-08T18:18:54.867Z,5.90
2019-01-08T18:21:23.035Z,5.90
2019-01-08T18:23:51.091Z,5.80
2019-01-08T18:26:18.958Z,5.80
2019-01-08T18:28:46.991Z,5.80
2019-01-08T18:31:14.964Z,5.80
2019-01-08T18:33:51.077Z,5.80
2019-01-08T18:36:13.456Z,5.80
2019-01-08T18:38:41.310Z,5.70
2019-01-08T18:41:09.287Z,5.70
2019-01-08T18:43:37.216Z,5.70
2019-01-08T18:46:05.052Z,5.70
2019-01-08T18:48:32.995Z,5.70
2019-01-08T18:51:01.040Z,5.70
2019-01-08T18:53:28.990Z,5.70
2019-01-08T18:55:57.032Z,5.70
2019-01-08T18:58:24.913Z,5.70
2019-01-08T19:00:52.778Z,5.60
2019-01-08T19:03:21.127Z,5.60
2019-01-08T19:05:50.706Z,5.60
2019-01-08T19:08:18.826Z,5.60
2019-01-08T19:10:48.498Z,5.60
2019-01-08T19:13:16.908Z,5.60
2019-01-08T19:16:13.619Z,5.60
2019-01-08T19:18:40.819Z,5.60
2019-01-08T19:21:08.820Z,5.60
2019-01-08T19:23:36.898Z,5.60
2019-01-08T19:26:04.784Z,5.60
2019-01-08T19:28:32.657Z,5.60
2019-01-08T19:31:00.515Z,5.60
2019-01-08T19:33:28.446Z,5.50
2019-01-08T19:35:56.541Z,5.50
2019-01-08T19:38:24.383Z,5.50
2019-01-08T19:40:52.205Z,5.40
2019-01-08T19:43:20.164Z,5.40
2019-01-08T19:45:49.719Z,5.40
2019-01-08T19:48:17.809Z,5.40
2019-01-08T19:50:47.404Z,5.40
2019-01-08T19:53:15.336Z,5.40
2019-01-08T19:55:43.155Z,5.40
2019-01-08T19:58:11.170Z,5.50
2019-01-08T20:00:39.093Z,5.50
2019-01-08T20:03:07.018Z,5.50
2019-01-08T20:05:35.124Z,5.50
2019-01-08T20:08:03.064Z,5.50
2019-01-08T20:10:31.144Z,5.50
2019-01-08T20:12:59.186Z,5.50
2019-01-08T20:16:07.897Z,5.50
2019-01-08T20:18:34.056Z,5.50
2019-01-08T20:21:01.838Z,5.50
2019-01-08T20:23:29.759Z,5.50
2019-01-08T20:25:57.829Z,5.50
2019-01-08T20:28:25.849Z,5.50
2019-01-08T20:30:53.819Z,5.50
2019-01-08T20:33:21.847Z,5.50
2019-01-08T20:35:49.686Z,5.50
2019-01-08T20:38:17.671Z,5.60
2019-01-08T20:40:45.591Z,5.70
2019-01-08T20:43:13.386Z,5.70
2019-01-08T20:45:41.915Z,5.70
2019-01-08T20:48:09.862Z,5.70
2019-01-08T20:50:37.703Z,5.70
2019-01-08T20:53:05.554Z,5.70
2019-01-08T20:55:33.539Z,5.70
2019-01-08T20:58:01.452Z,5.70
2019-01-08T21:00:29.483Z,5.70
2019-01-08T21:02:57.460Z,5.70
2019-01-08T21:05:25.840Z,5.80
2019-01-08T21:07:53.780Z,5.80
2019-01-08T21:10:22.259Z,5.80
2019-01-08T21:12:50.153Z,5.80
2019-01-08T21:15:54.970Z,5.90
2019-01-08T21:18:22.614Z,5.90
2019-01-08T21:20:50.599Z,5.90
2019-01-08T21:23:18.498Z,5.90
2019-01-08T21:26:07.841Z,5.90
2019-01-08T21:28:35.723Z,5.90
2019-01-08T21:31:03.674Z,5.90
2019-01-08T21:33:31.543Z,5.90
2019-01-08T21:35:59.507Z,6.00
2019-01-08T21:38:27.345Z,5.90
2019-01-08T21:40:55.307Z,5.90
2019-01-08T21:43:23.363Z,5.90
2019-01-08T21:45:51.283Z,6.00
2019-01-08T21:48:19.256Z,6.00
2019-01-08T21:50:48.630Z,6.00
2019-01-08T21:53:16.636Z,6.00
2019-01-08T21:55:44.895Z,6.00
2019-01-08T21:58:12.815Z,6.00
2019-01-08T22:00:40.706Z,6.00
2019-01-08T22:03:08.626Z,6.00
2019-01-08T22:05:36.698Z,6.00
2019-01-08T22:08:04.724Z,6.00
2019-01-08T22:10:32.748Z,6.00
2019-01-08T22:13:00.668Z,6.10
2019-01-08T22:15:52.044Z,6.10
2019-01-08T22:18:19.919Z,6.10
2019-01-08T22:20:49.584Z,6.10
2019-01-08T22:23:17.536Z,6.10
2019-01-08T22:25:45.844Z,6.10
2019-01-08T22:28:13.857Z,6.00
2019-01-08T22:30:41.889Z,6.10
2019-01-08T22:33:12.918Z,6.00
2019-01-08T22:35:40.823Z,6.00
2019-01-08T22:38:08.820Z,6.00
2019-01-08T22:40:36.693Z,6.00
2019-01-08T22:43:04.642Z,6.00
2019-01-08T22:45:33.222Z,6.00
2019-01-08T22:48:01.172Z,6.00
2019-01-08T22:50:29.110Z,6.00
2019-01-08T22:52:57.015Z,6.00
2019-01-08T22:55:24.863Z,6.00
2019-01-08T22:57:53.309Z,5.90
2019-01-08T23:00:40.624Z,5.90
2019-01-08T23:03:09.259Z,5.90
2019-01-08T23:05:37.112Z,5.90
2019-01-08T23:08:05.059Z,5.80
2019-01-08T23:10:33.479Z,5.80
2019-01-08T23:13:10.646Z,5.80
2019-01-08T23:15:38.536Z,5.80
2019-01-08T23:18:06.388Z,5.80
2019-01-08T23:20:34.447Z,5.90
2019-01-08T23:23:02.502Z,5.80
2019-01-08T23:25:30.363Z,5.80
2019-01-08T23:27:58.766Z,5.80
2019-01-08T23:30:27.138Z,5.80
2019-01-08T23:32:55.022Z,5.80
2019-01-08T23:35:22.943Z,5.70
2019-01-08T23:37:51.252Z,5.70
2019-01-08T23:40:19.199Z,5.80
2019-01-08T23:42:47.171Z,5.80
2019-01-08T23:45:15.099Z,5.80
2019-01-08T23:47:43.155Z,5.80
2019-01-08T23:50:11.168Z,5.80
2019-01-08T23:53:01.165Z,5.70
2019-01-08T23:55:31.767Z,5.70
2019-01-08T23:58:02.111Z,5.70
